createdAt,value
2022-08-26T00:01:31.083Z,96.50
2022-08-26T00:03:58.871Z,96.70
2022-08-26T00:06:26.221Z,96.60
2022-08-26T00:08:54.038Z,96.60
2022-08-26T00:11:26.720Z,96.70
2022-08-26T00:13:54.584Z,96.70
2022-08-26T00:16:21.926Z,96.50
2022-08-26T00:18:48.678Z,96.50
2022-08-26T00:21:16.043Z,96.60
2022-08-26T00:23:42.845Z,96.70
2022-08-26T00:26:09.644Z,96.80
2022-08-26T00:28:38.047Z,96.90
2022-08-26T00:31:07.247Z,97.00
2022-08-26T00:33:33.960Z,97.00
2022-08-26T00:36:01.623Z,97.10
2022-08-26T00:38:29.239Z,97.10
2022-08-26T00:40:57.401Z,97.10
2022-08-26T00:43:25.775Z,97.00
2022-08-26T00:46:06.822Z,97.00
2022-08-26T00:48:35.819Z,97.10
2022-08-26T00:51:24.759Z,97.30
2022-08-26T00:54:05.517Z,97.40
2022-08-26T00:56:36.383Z,97.50
2022-08-26T00:59:07.066Z,97.50
2022-08-26T01:01:34.122Z,97.50
2022-08-26T01:04:01.719Z,97.60
2022-08-26T01:06:28.547Z,97.60
2022-08-26T01:08:56.000Z,97.60
2022-08-26T01:11:24.147Z,97.50
2022-08-26T01:13:59.791Z,97.70
2022-08-26T01:16:27.029Z,97.80
2022-08-26T01:18:59.368Z,97.80
2022-08-26T01:21:43.869Z,97.70
2022-08-26T01:24:11.368Z,97.80
2022-08-26T01:26:44.660Z,97.80
2022-08-26T01:29:17.749Z,97.60
2022-08-26T01:31:56.923Z,97.70
2022-08-26T01:34:28.541Z,97.90
2022-08-26T01:37:07.478Z,98.00
2022-08-26T01:39:35.670Z,98.00
2022-08-26T01:42:03.927Z,98.00
2022-08-26T01:44:36.377Z,98.00
2022-08-26T01:47:04.953Z,98.10
2022-08-26T01:49:34.466Z,98.10
2022-08-26T01:52:04.139Z,98.10
2022-08-26T01:54:31.336Z,98.20
2022-08-26T01:56:58.922Z,98.00
2022-08-26T01:59:25.949Z,98.00
2022-08-26T02:01:53.341Z,98.30
2022-08-26T02:04:49.952Z,98.50
2022-08-26T02:07:18.931Z,98.20
2022-08-26T02:09:48.418Z,98.40
2022-08-26T02:12:18.182Z,98.40
2022-08-26T02:14:50.189Z,98.40
2022-08-26T02:17:21.409Z,98.60
2022-08-26T02:19:49.816Z,98.60
2022-08-26T02:22:20.540Z,98.60
2022-08-26T02:24:53.488Z,98.60
2022-08-26T02:27:28.222Z,98.60
2022-08-26T02:30:03.919Z,98.70
2022-08-26T02:32:32.037Z,98.80
2022-08-26T02:34:58.771Z,98.70
2022-08-26T02:37:29.441Z,98.80
2022-08-26T02:39:56.307Z,98.80
2022-08-26T02:42:23.926Z,98.70
2022-08-26T02:44:51.860Z,98.70
2022-08-26T02:47:18.576Z,98.90
2022-08-26T02:49:47.228Z,98.90
2022-08-26T02:52:15.110Z,98.90
2022-08-26T02:54:41.782Z,98.90
2022-08-26T02:57:09.147Z,98.90
2022-08-26T02:59:36.150Z,99.00
2022-08-26T03:02:03.825Z,99.00
2022-08-26T03:04:33.386Z,98.90
2022-08-26T03:07:00.279Z,99.00
2022-08-26T03:09:28.090Z,99.00
2022-08-26T03:11:55.471Z,99.20
2022-08-26T03:14:23.957Z,99.30
2022-08-26T03:16:53.860Z,99.40
2022-08-26T03:19:22.455Z,99.40
2022-08-26T03:21:49.554Z,99.30
2022-08-26T03:24:17.519Z,99.20
2022-08-26T03:26:52.910Z,99.40
2022-08-26T03:29:40.206Z,99.50
2022-08-26T03:32:07.695Z,99.50
2022-08-26T03:34:35.235Z,99.40
2022-08-26T03:37:02.083Z,99.50
2022-08-26T03:39:31.585Z,99.50
2022-08-26T03:41:59.524Z,99.60
2022-08-26T03:44:26.714Z,99.60
2022-08-26T03:46:54.497Z,99.80
2022-08-26T03:49:22.491Z,99.90
2022-08-26T03:51:49.234Z,99.80
2022-08-26T03:54:17.271Z,99.90
2022-08-26T03:56:44.090Z,99.90
2022-08-26T03:59:13.683Z,99.90
2022-08-26T04:01:40.680Z,99.90
2022-08-26T04:04:07.755Z,99.90
2022-08-26T04:06:39.842Z,99.90
2022-08-26T04:09:13.322Z,99.90
2022-08-26T04:11:41.904Z,99.90
2022-08-26T04:14:17.616Z,99.90
2022-08-26T04:16:47.711Z,99.90
2022-08-26T04:19:16.614Z,99.90
2022-08-26T04:21:44.980Z,99.90
2022-08-26T04:24:15.537Z,99.90
2022-08-26T04:26:43.704Z,99.90
2022-08-26T04:29:20.107Z,99.90
2022-08-26T04:31:49.919Z,99.90
2022-08-26T04:34:23.914Z,99.90
2022-08-26T04:36:51.389Z,99.90
2022-08-26T04:39:20.184Z,99.90
2022-08-26T04:41:48.457Z,99.90
2022-08-26T04:44:16.386Z,99.90
2022-08-26T04:46:44.271Z,99.90
2022-08-26T04:49:11.855Z,99.90
2022-08-26T04:51:39.990Z,99.90
2022-08-26T04:54:07.513Z,99.90
2022-08-26T04:56:39.887Z,99.90
2022-08-26T04:59:08.203Z,99.90
2022-08-26T05:01:49.698Z,99.90
2022-08-26T05:04:18.893Z,99.90
2022-08-26T05:06:49.183Z,99.90
2022-08-26T05:09:21.179Z,99.90
2022-08-26T05:11:52.018Z,99.90
2022-08-26T05:14:23.075Z,99.90
2022-08-26T05:16:49.935Z,99.90
2022-08-26T05:19:18.742Z,99.90
2022-08-26T05:21:47.133Z,99.90
2022-08-26T05:24:14.028Z,99.90
2022-08-26T05:26:40.844Z,99.90
2022-08-26T05:29:07.882Z,99.90
2022-08-26T05:32:43.787Z,99.90
2022-08-26T05:35:28.727Z,99.90
2022-08-26T05:38:12.598Z,99.90
2022-08-26T05:41:47.081Z,99.90
2022-08-26T05:48:11.032Z,99.90
2022-08-26T05:51:15.036Z,99.90
2022-08-26T05:54:34.818Z,99.90
2022-08-26T05:57:11.192Z,99.90
2022-08-26T05:59:39.609Z,99.90
2022-08-26T06:03:20.900Z,99.90
2022-08-26T06:10:30.509Z,99.90
2022-08-26T06:17:43.193Z,99.90
2022-08-26T06:24:09.662Z,99.90
2022-08-26T06:26:50.517Z,99.90
2022-08-26T06:29:35.035Z,99.90
2022-08-26T06:36:28.128Z,99.90
2022-08-26T06:39:14.260Z,99.90
2022-08-26T06:41:51.460Z,99.90
2022-08-26T06:47:32.422Z,99.90
2022-08-26T07:02:00.723Z,99.90
2022-08-26T07:05:05.161Z,99.90
2022-08-26T07:07:46.627Z,99.70
2022-08-26T07:14:03.292Z,99.80
2022-08-26T07:14:04.494Z,99.50
2022-08-26T07:17:03.400Z,99.30
2022-08-26T07:19:44.961Z,99.20
2022-08-26T07:22:53.770Z,99.20
2022-08-26T07:33:51.671Z,98.80
2022-08-26T07:37:21.340Z,98.50
2022-08-26T07:40:40.333Z,98.30
2022-08-26T07:43:22.618Z,98.00
2022-08-26T07:46:37.747Z,97.70
2022-08-26T08:00:27.646Z,97.40
2022-08-26T08:10:34.426Z,96.50
2022-08-26T08:13:08.449Z,96.30
2022-08-26T08:16:12.517Z,96.10
2022-08-26T08:19:39.102Z,96.00
2022-08-26T08:37:17.595Z,95.90
2022-08-26T08:39:59.375Z,96.10
2022-08-26T08:50:02.432Z,96.20
2022-08-26T08:52:48.940Z,96.20
2022-08-26T09:00:13.861Z,95.90
2022-08-26T09:06:31.308Z,95.70
2022-08-26T09:09:10.116Z,95.20
2022-08-26T09:11:37.105Z,94.90
2022-08-26T09:22:07.040Z,95.10
2022-08-26T09:24:48.379Z,95.00
2022-08-26T09:27:45.138Z,94.60
2022-08-26T09:33:28.469Z,93.90
2022-08-26T09:40:41.992Z,93.70
2022-08-26T09:44:14.454Z,93.50
2022-08-26T09:47:07.914Z,93.30
2022-08-26T09:50:05.325Z,93.20
2022-08-26T09:53:16.265Z,92.80
2022-08-26T09:59:47.153Z,92.50
2022-08-26T10:02:32.884Z,92.60
2022-08-26T10:05:52.825Z,92.20
2022-08-26T10:16:40.761Z,91.50
2022-08-26T10:22:00.383Z,91.70
2022-08-26T10:32:30.630Z,91.80
2022-08-26T10:35:44.007Z,91.80
2022-08-26T10:38:45.175Z,91.90
2022-08-26T10:52:51.843Z,92.20
2022-08-26T10:55:39.093Z,92.10
2022-08-26T10:58:55.626Z,91.80
2022-08-26T11:01:56.667Z,91.50
2022-08-26T11:12:38.919Z,91.50
2022-08-26T11:15:32.039Z,90.70
2022-08-26T11:26:56.367Z,88.50
2022-08-26T11:34:36.325Z,88.40
2022-08-26T11:37:35.785Z,88.10
2022-08-26T11:49:38.028Z,88.60
2022-08-26T11:52:37.783Z,87.40
2022-08-26T12:02:45.823Z,88.50
2022-08-26T12:16:45.514Z,85.00
2022-08-26T12:24:07.801Z,84.30
2022-08-26T12:27:53.095Z,82.20
2022-08-26T12:35:16.505Z,81.40
2022-08-26T12:37:56.940Z,79.30
2022-08-26T12:43:56.865Z,79.80
2022-08-26T12:47:30.993Z,79.10
2022-08-26T12:51:37.524Z,79.80
2022-08-26T12:54:45.590Z,79.80
2022-08-26T12:58:02.555Z,81.30
2022-08-26T13:01:22.256Z,80.20
2022-08-26T13:12:30.880Z,85.90
2022-08-26T13:17:28.869Z,85.80
2022-08-26T13:19:57.975Z,86.10
2022-08-26T13:22:36.144Z,86.80
2022-08-26T13:25:37.683Z,86.80
2022-08-26T13:39:23.779Z,85.10
2022-08-26T13:46:02.048Z,83.20
2022-08-26T13:52:55.766Z,83.10
2022-08-26T13:55:53.263Z,82.00
2022-08-26T13:58:48.201Z,82.40
2022-08-26T14:02:30.187Z,82.50
2022-08-26T14:08:30.741Z,82.60
2022-08-26T14:12:35.507Z,84.40
2022-08-26T14:16:00.643Z,84.10
2022-08-26T14:19:16.007Z,84.00
2022-08-26T14:26:28.839Z,84.90
2022-08-26T14:32:49.560Z,85.80
2022-08-26T14:40:22.584Z,85.60
2022-08-26T15:03:32.809Z,84.90
2022-08-26T15:06:39.185Z,83.30
2022-08-26T15:09:40.467Z,83.20
2022-08-26T15:12:37.455Z,82.80
2022-08-26T15:15:39.662Z,82.20
2022-08-26T15:18:46.983Z,82.50
2022-08-26T15:21:38.751Z,83.00
2022-08-26T15:24:05.880Z,83.50
2022-08-26T15:26:42.673Z,84.30
2022-08-26T15:37:33.585Z,86.50
2022-08-26T15:50:40.214Z,86.80
2022-08-26T15:54:01.640Z,84.50
2022-08-26T15:57:02.165Z,83.20
2022-08-26T16:07:00.302Z,84.70
2022-08-26T16:14:47.616Z,90.00
2022-08-26T16:17:41.978Z,91.30
2022-08-26T16:21:13.231Z,91.50
2022-08-26T16:28:06.071Z,91.80
2022-08-26T16:51:41.490Z,96.70
2022-08-26T16:55:23.195Z,96.80
2022-08-26T16:58:59.767Z,97.30
2022-08-26T17:02:08.111Z,97.80
2022-08-26T17:16:30.614Z,99.90
2022-08-26T17:22:49.697Z,99.90
2022-08-26T17:25:51.469Z,99.90
2022-08-26T17:28:49.509Z,99.90
2022-08-26T17:31:18.788Z,99.20
2022-08-26T17:33:57.433Z,99.40
2022-08-26T17:37:13.770Z,99.00
2022-08-26T17:44:03.402Z,98.40
2022-08-26T17:46:45.859Z,98.70
2022-08-26T17:49:42.014Z,98.50
2022-08-26T17:53:04.432Z,98.70
2022-08-26T18:00:06.023Z,98.70
2022-08-26T18:06:23.783Z,98.30
2022-08-26T18:08:51.297Z,98.10
2022-08-26T18:11:32.448Z,97.70
2022-08-26T18:14:18.361Z,97.80
2022-08-26T18:17:15.262Z,97.90
2022-08-26T18:20:04.096Z,98.30
2022-08-26T18:22:56.925Z,98.00
2022-08-26T18:36:44.235Z,97.70
2022-08-26T18:39:23.684Z,97.90
2022-08-26T18:42:05.101Z,98.00
2022-08-26T18:45:05.422Z,98.10
2022-08-26T18:48:03.966Z,98.30
2022-08-26T18:50:30.838Z,98.40
2022-08-26T18:54:09.066Z,98.30
2022-08-26T19:00:47.234Z,98.40
2022-08-26T19:03:38.130Z,98.30
2022-08-26T19:06:17.781Z,98.60
2022-08-26T19:08:54.493Z,99.00
2022-08-26T19:19:42.435Z,99.40
2022-08-26T19:22:36.908Z,99.50
2022-08-26T19:28:22.659Z,99.70
2022-08-26T19:32:04.031Z,99.60
2022-08-26T19:34:37.605Z,99.00
2022-08-26T19:37:08.391Z,98.90
2022-08-26T19:39:52.207Z,99.00
2022-08-26T19:42:48.825Z,98.80
2022-08-26T19:46:12.877Z,99.00
2022-08-26T19:48:46.816Z,99.50
2022-08-26T19:55:37.422Z,99.30
2022-08-26T19:58:04.944Z,99.60
2022-08-26T20:00:31.960Z,99.70
2022-08-26T20:02:59.405Z,99.70
2022-08-26T20:05:27.178Z,99.80
2022-08-26T20:07:54.404Z,99.80
2022-08-26T20:10:23.698Z,99.70
2022-08-26T20:12:51.931Z,99.70
2022-08-26T20:15:20.475Z,99.70
2022-08-26T20:17:47.411Z,99.80
2022-08-26T20:20:34.618Z,99.90
2022-08-26T20:23:05.136Z,99.90
2022-08-26T20:25:33.080Z,99.90
2022-08-26T20:28:00.199Z,99.90
2022-08-26T20:30:27.052Z,99.90
2022-08-26T20:32:53.793Z,99.90
2022-08-26T20:35:20.604Z,99.90
2022-08-26T20:37:47.660Z,99.90
2022-08-26T20:40:14.619Z,99.90
2022-08-26T20:42:41.552Z,99.90
2022-08-26T20:45:08.731Z,99.90
2022-08-26T20:47:35.513Z,99.90
2022-08-26T20:50:02.727Z,99.90
2022-08-26T20:52:29.728Z,99.90
2022-08-26T20:54:56.823Z,99.90
2022-08-26T20:57:23.569Z,99.90
2022-08-26T20:59:50.752Z,99.90
2022-08-26T21:02:17.697Z,99.90
2022-08-26T21:04:44.499Z,99.90
2022-08-26T21:07:11.380Z,99.90
2022-08-26T21:09:38.132Z,99.90
2022-08-26T21:12:05.436Z,99.90
2022-08-26T21:14:32.206Z,99.90
2022-08-26T21:16:59.552Z,99.90
2022-08-26T21:19:26.590Z,99.90
2022-08-26T21:21:53.601Z,99.90
2022-08-26T21:24:20.383Z,99.90
2022-08-26T21:26:47.628Z,99.90
2022-08-26T21:29:14.786Z,99.90
2022-08-26T21:31:46.169Z,99.90
2022-08-26T21:34:14.783Z,99.90
2022-08-26T21:36:41.895Z,99.90
2022-08-26T21:39:11.719Z,99.90
2022-08-26T21:41:40.482Z,99.90
2022-08-26T21:44:07.545Z,99.90
2022-08-26T21:46:37.111Z,99.90
2022-08-26T21:49:07.338Z,99.90
2022-08-26T21:51:37.059Z,99.90
2022-08-26T21:54:10.492Z,99.90
2022-08-26T21:56:44.551Z,99.90
2022-08-26T21:59:12.290Z,99.90
2022-08-26T22:01:39.335Z,99.90
2022-08-26T22:04:08.817Z,99.90
2022-08-26T22:06:44.237Z,99.90
2022-08-26T22:09:12.314Z,99.90
2022-08-26T22:11:39.431Z,99.90
2022-08-26T22:14:06.862Z,99.90
2022-08-26T22:16:33.768Z,99.90
2022-08-26T22:19:00.707Z,99.90
2022-08-26T22:21:28.320Z,99.90
2022-08-26T22:23:58.082Z,99.90
2022-08-26T22:26:28.706Z,99.90
2022-08-26T22:28:59.238Z,99.90
2022-08-26T22:31:38.116Z,99.90
2022-08-26T22:34:07.806Z,99.90
2022-08-26T22:36:35.302Z,99.90
2022-08-26T22:39:02.300Z,99.90
2022-08-26T22:41:29.022Z,99.90
2022-08-26T22:44:02.535Z,99.90
2022-08-26T22:46:29.409Z,99.90
2022-08-26T22:48:56.557Z,99.90
2022-08-26T22:51:23.618Z,99.90
2022-08-26T22:53:50.427Z,99.90
2022-08-26T22:56:19.026Z,99.90
2022-08-26T22:58:45.939Z,99.90
2022-08-26T23:01:13.128Z,99.90
2022-08-26T23:03:39.991Z,99.90
2022-08-26T23:06:09.424Z,99.90
2022-08-26T23:08:36.911Z,99.90
2022-08-26T23:11:08.812Z,99.90
2022-08-26T23:13:36.389Z,99.90
2022-08-26T23:16:06.698Z,99.90
2022-08-26T23:18:33.497Z,99.90
2022-08-26T23:21:00.310Z,99.90
2022-08-26T23:23:27.638Z,99.90
2022-08-26T23:25:55.447Z,99.90
2022-08-26T23:28:22.614Z,99.90
2022-08-26T23:30:49.855Z,99.90
2022-08-26T23:33:16.664Z,99.90
2022-08-26T23:35:44.410Z,99.90
2022-08-26T23:38:11.773Z,99.90
2022-08-26T23:40:40.882Z,99.90
2022-08-26T23:43:09.587Z,99.90
2022-08-26T23:45:36.511Z,99.90
2022-08-26T23:48:04.222Z,99.90
2022-08-26T23:50:50.483Z,99.90
2022-08-26T23:53:21.679Z,99.90
2022-08-26T23:55:50.903Z,99.90
2022-08-26T23:58:19.771Z,99.90
